Time;durP1;ratioP1;P1;durP2;ratioP2;P2;SDS_P1;SDS_P2;PMS_P1;PMS_P2;Temp;Humidity;BMP_temperature;BMP_pressure;BME280_temperature;BME280_humidity;BME280_pressure;Samples;Min_cycle;Max_cycle;Signal;HPM_P1;HPM_P2
2022/06/01 00:00:10;;;;;;;7.20;6.37;;;;;;;15.43;69.86;100462.19;1661882;84;26558;-81
2022/06/01 00:02:39;;;;;;;8.28;6.92;;;;;;;15.41;70.31;100453.97;1656830;84;26845;-81
2022/06/01 00:05:07;;;;;;;8.50;6.85;;;;;;;15.42;70.73;100440.76;1670636;84;25811;-82
2022/06/01 00:07:33;;;;;;;9.85;6.85;;;;;;;15.41;71.12;100431.86;1665366;84;26308;-81
2022/06/01 00:09:59;;;;;;;9.00;7.12;;;;;;;15.40;71.07;100414.00;1664704;84;25942;-81
2022/06/01 00:12:26;;;;;;;6.92;6.30;;;;;;;15.41;71.50;100411.61;1663377;84;26354;-81
2022/06/01 00:14:52;;;;;;;7.50;6.75;;;;;;;15.44;71.58;100394.16;1672058;84;27899;-82
2022/06/01 00:17:20;;;;;;;6.47;5.60;;;;;;;15.46;72.17;100387.20;1656817;83;25754;-81
2022/06/01 00:19:46;;;;;;;6.40;4.90;;;;;;;15.43;72.29;100385.77;1666552;84;25315;-81
2022/06/01 00:22:12;;;;;;;5.95;4.12;;;;;;;15.42;72.42;100370.58;1662609;84;25937;-81
2022/06/01 00:24:43;;;;;;;2.33;2.08;;;;;;;15.42;72.56;100367.36;1674397;84;25854;-81
2022/06/01 00:27:12;;;;;;;3.72;2.30;;;;;;;15.43;71.65;100362.31;1671499;83;27683;-81
2022/06/01 00:29:39;;;;;;;3.10;2.02;;;;;;;15.48;71.39;100366.20;1670826;84;25441;-81
2022/06/01 00:32:07;;;;;;;2.33;1.60;;;;;;;15.52;71.24;100374.98;1663865;84;25923;-81
2022/06/01 00:34:34;;;;;;;3.83;1.85;;;;;;;15.54;71.35;100369.36;1666967;84;25853;-80
2022/06/01 00:37:00;;;;;;;2.77;1.47;;;;;;;15.55;70.74;100371.83;1649784;85;26075;-80
2022/06/01 00:39:26;;;;;;;3.55;1.70;;;;;;;15.56;70.01;100373.48;1668890;84;27473;-81
2022/06/01 00:41:52;;;;;;;1.82;1.60;;;;;;;15.58;69.63;100364.64;1670626;84;26450;-81
2022/06/01 00:44:19;;;;;;;3.77;1.92;;;;;;;15.61;69.38;100374.17;1642795;85;25895;-80
2022/06/01 00:46:45;;;;;;;2.00;1.62;;;;;;;15.60;69.38;100384.66;1658681;83;25758;-81
2022/06/01 00:49:21;;;;;;;2.40;1.37;;;;;;;15.58;69.32;100379.48;1650986;84;25914;-80
2022/06/01 00:51:49;;;;;;;2.20;0.90;;;;;;;15.58;69.39;100385.41;1670038;84;28471;-81
2022/06/01 00:54:16;;;;;;;2.42;1.05;;;;;;;15.57;69.37;100376.47;1661278;84;26161;-80
2022/06/01 00:56:51;;;;;;;2.83;1.65;;;;;;;15.54;69.26;100382.34;1660578;84;25799;-80
2022/06/01 00:59:21;;;;;;;1.72;1.40;;;;;;;15.53;69.34;100363.64;1663421;84;25855;-81
2022/06/01 01:01:49;;;;;;;2.33;1.42;;;;;;;15.54;69.26;100393.66;1633973;86;25342;-81
2022/06/01 01:04:15;;;;;;;2.35;1.27;;;;;;;15.54;69.26;100393.66;1646375;86;28628;-81
2022/06/01 01:06:43;;;;;;;2.40;1.50;;;;;;;15.54;68.99;100403.94;1666588;84;25823;-81
2022/06/01 01:09:12;;;;;;;2.17;1.55;;;;;;;15.54;69.32;100408.50;1673269;84;25913;-81
2022/06/01 01:11:54;;;;;;;4.17;2.00;;;;;;;15.52;69.96;100422.23;1662314;84;25881;-80
2022/06/01 01:14:25;;;;;;;2.98;1.52;;;;;;;15.47;71.52;100424.77;1667672;84;25778;-81
2022/06/01 01:16:53;;;;;;;4.55;2.27;;;;;;;15.44;70.65;100442.22;1668797;84;27583;-81
2022/06/01 01:19:36;;;;;;;6.10;2.17;;;;;;;15.43;71.35;100449.20;1666424;84;25773;-81
2022/06/01 01:22:41;;;;;;;3.02;2.10;;;;;;;15.41;71.85;100448.05;1632363;86;25305;-80
2022/06/01 01:25:22;;;;;;;2.80;2.50;;;;;;;15.39;72.89;100447.97;1666509;84;26690;-81
2022/06/01 01:27:52;;;;;;;6.53;2.92;;;;;;;15.31;74.03;100438.27;1675114;84;25797;-81
2022/06/01 01:30:30;;;;;;;4.15;3.02;;;;;;;15.27;74.91;100423.56;1669238;84;26908;-81
2022/06/01 01:32:56;;;;;;;4.60;3.30;;;;;;;15.21;75.95;100405.56;1660854;84;25871;-81
2022/06/01 01:35:23;;;;;;;2.83;2.52;;;;;;;15.13;76.70;100394.22;1667255;84;25902;-80
2022/06/01 01:37:51;;;;;;;3.80;3.50;;;;;;;15.05;77.21;100388.60;1662413;84;26712;-80
2022/06/01 01:40:18;;;;;;;4.15;3.55;;;;;;;15.01;77.72;100392.76;1669034;84;26359;-80
2022/06/01 01:42:45;;;;;;;4.22;3.83;;;;;;;14.98;78.45;100385.13;1670524;84;28057;-81
2022/06/01 01:45:23;;;;;;;4.28;3.98;;;;;;;14.94;79.44;100373.13;1649225;86;25953;-80
2022/06/01 01:47:51;;;;;;;4.72;4.03;;;;;;;14.88;79.72;100374.02;1657790;84;25752;-80
2022/06/01 01:50:19;;;;;;;4.90;4.25;;;;;;;14.86;80.51;100369.37;1661748;84;26533;-81
2022/06/01 01:52:46;;;;;;;5.20;4.70;;;;;;;14.85;81.24;100368.21;1669958;84;25959;-80
2022/06/01 01:55:45;;;;;;;6.55;4.65;;;;;;;14.82;82.27;100372.17;1667106;84;28263;-81
2022/06/01 01:58:26;;;;;;;7.17;4.97;;;;;;;14.83;82.16;100364.40;1663919;84;25985;-81
2022/06/01 02:01:07;;;;;;;6.47;5.12;;;;;;;14.82;81.98;100364.08;1670394;84;25876;-80
2022/06/01 02:03:47;;;;;;;5.60;5.10;;;;;;;14.83;82.42;100365.75;1662586;84;25850;-80
2022/06/01 02:06:34;;;;;;;6.13;4.80;;;;;;;14.84;83.18;100373.32;1668234;84;25807;-81
2022/06/01 02:09:05;;;;;;;5.62;5.05;;;;;;;14.81;83.07;100373.75;1633476;86;26996;-80
2022/06/01 02:14:46;;;;;;;7.83;5.78;;;;;;;14.77;83.61;100372.54;1663179;84;26186;-80
2022/06/01 02:17:29;;;;;;;6.78;5.62;;;;;;;14.76;83.82;100369.01;1677348;84;26215;-81
2022/06/01 02:20:04;;;;;;;5.42;4.92;;;;;;;14.77;83.54;100361.75;1672903;84;26563;-81
2022/06/01 02:22:31;;;;;;;7.42;5.35;;;;;;;14.81;83.60;100362.45;1660955;84;27656;-81
2022/06/01 02:24:57;;;;;;;6.35;5.75;;;;;;;14.82;83.42;100352.49;1649584;85;25355;-81
2022/06/01 02:27:24;;;;;;;5.87;5.28;;;;;;;14.82;83.49;100348.45;1664569;83;26010;-81
2022/06/01 02:29:57;;;;;;;6.35;5.75;;;;;;;14.81;83.23;100350.31;1662939;84;25824;-81
2022/06/01 02:32:28;;;;;;;5.80;5.20;;;;;;;14.81;83.17;100343.57;1665974;84;25830;-80
2022/06/01 02:34:58;;;;;;;7.83;5.75;;;;;;;14.78;83.07;100333.21;1668948;85;27478;-80
2022/06/01 02:37:29;;;;;;;6.12;5.47;;;;;;;14.79;83.07;100338.92;1675970;83;25845;-81
2022/06/01 02:39:57;;;;;;;6.35;5.75;;;;;;;14.80;83.12;100329.77;1666435;84;25897;-80
2022/06/01 02:42:26;;;;;;;6.72;5.53;;;;;;;14.79;83.26;100328.66;1663483;84;25796;-80
2022/06/01 02:44:59;;;;;;;6.30;5.70;;;;;;;14.79;83.28;100331.34;1675287;84;25929;-80
2022/06/01 02:47:30;;;;;;;7.70;5.75;;;;;;;14.80;83.16;100335.16;1639041;86;27502;-82
2022/06/01 02:49:58;;;;;;;6.10;5.60;;;;;;;14.81;83.22;100333.30;1663420;84;25808;-82
2022/06/01 02:52:26;;;;;;;5.58;5.08;;;;;;;14.78;83.10;100333.21;1651341;84;25910;-82
2022/06/01 02:54:52;;;;;;;5.67;4.75;;;;;;;14.77;83.28;100330.74;1662384;84;26588;-82
2022/06/01 02:57:19;;;;;;;6.37;5.65;;;;;;;14.78;83.20;100333.76;1673294;83;25859;-82
2022/06/01 02:59:47;;;;;;;7.17;5.25;;;;;;;14.77;83.36;100332.09;1638146;85;27462;-82
2022/06/01 03:02:14;;;;;;;5.25;4.85;;;;;;;14.77;83.14;100329.40;1642383;86;26133;-81
2022/06/01 03:04:43;;;;;;;5.25;4.78;;;;;;;14.77;83.19;100332.92;1667964;84;25913;-81
2022/06/01 03:07:11;;;;;;;5.95;5.33;;;;;;;14.77;83.16;100334.79;1640711;85;25930;-82
2022/06/01 03:09:38;;;;;;;8.00;4.95;;;;;;;14.77;83.33;100342.36;1635353;86;26303;-82
2022/06/01 03:12:06;;;;;;;6.00;5.35;;;;;;;14.79;83.20;100364.54;1621483;86;27471;-82
2022/06/01 03:14:36;;;;;;;5.78;5.10;;;;;;;14.80;83.03;100364.83;1662152;84;25792;-81
2022/06/01 03:17:05;;;;;;;5.60;5.03;;;;;;;14.84;83.23;100361.19;1661680;84;25963;-82
2022/06/01 03:19:32;;;;;;;5.92;5.28;;;;;;;14.85;83.10;100360.13;1664066;84;26637;-82
2022/06/01 03:21:58;;;;;;;7.25;5.42;;;;;;;14.88;83.21;100365.92;1672014;84;25387;-82
2022/06/01 03:24:24;;;;;;;5.12;4.50;;;;;;;14.90;83.04;100379.18;1649716;86;27467;-82
2022/06/01 03:26:51;;;;;;;5.62;5.03;;;;;;;14.86;82.84;100376.11;1633235;86;25917;-83
2022/06/01 03:29:17;;;;;;;7.08;4.40;;;;;;;14.87;82.88;100375.05;1650088;86;25844;-82
2022/06/01 03:31:43;;;;;;;5.53;4.80;;;;;;;14.91;82.85;100375.42;1650363;86;25812;-82
2022/06/01 03:34:10;;;;;;;7.30;4.97;;;;;;;14.92;82.81;100372.53;1650151;86;26385;-82
2022/06/01 03:36:36;;;;;;;7.15;5.92;;;;;;;14.93;82.70;100380.91;1632105;86;27460;-82
2022/06/01 03:39:03;;;;;;;9.83;6.12;;;;;;;14.93;82.64;100380.91;1636605;86;25915;-82
2022/06/01 03:41:37;;;;;;;5.78;5.10;;;;;;;14.91;82.99;100386.20;1637759;86;26575;-84
2022/06/01 03:46:52;;;;;;;7.25;5.37;;;;;;;14.89;83.06;100393.18;1613929;86;25963;-81
2022/06/01 03:49:17;;;;;;;5.15;4.65;;;;;;;14.93;82.98;100396.25;1663469;84;27552;-82
2022/06/01 03:51:43;;;;;;;5.35;4.62;;;;;;;14.95;82.94;100393.64;1668263;84;26093;-81
2022/06/01 03:54:09;;;;;;;5.37;4.50;;;;;;;14.97;82.83;100398.30;1662397;84;25817;-81
2022/06/01 03:56:36;;;;;;;7.92;4.60;;;;;;;14.93;82.81;100405.17;1645424;85;25765;-80
2022/06/01 03:59:02;;;;;;;9.93;4.10;;;;;;;14.95;83.00;100404.98;1664716;84;25923;-80
2022/06/01 04:01:28;;;;;;;4.50;4.05;;;;;;;14.98;83.01;100398.61;1668385;84;27467;-81
2022/06/01 04:03:55;;;;;;;4.53;4.03;;;;;;;15.01;82.63;100402.20;1676621;84;25908;-80
2022/06/01 04:06:21;;;;;;;4.10;3.70;;;;;;;15.07;82.63;100401.34;1674930;84;26133;-81
2022/06/01 04:08:47;;;;;;;4.35;3.85;;;;;;;15.13;82.67;100391.53;1666571;84;26293;-80
2022/06/01 04:11:13;;;;;;;6.22;4.55;;;;;;;15.18;82.65;100394.40;1666766;84;26125;-81
2022/06/01 04:13:39;;;;;;;4.20;3.75;;;;;;;15.23;82.84;100394.54;1663778;84;27707;-80
2022/06/01 04:16:06;;;;;;;4.67;4.10;;;;;;;15.28;82.75;100395.55;1665724;84;25868;-80
2022/06/01 04:18:32;;;;;;;3.80;3.50;;;;;;;15.30;82.60;100400.20;1667676;84;26124;-80
2022/06/01 04:20:58;;;;;;;5.17;3.72;;;;;;;15.31;82.37;100397.78;1678044;84;26443;-80
2022/06/01 04:23:24;;;;;;;5.87;3.45;;;;;;;15.34;82.19;100402.75;1645477;85;25835;-80
2022/06/01 04:25:50;;;;;;;3.80;3.50;;;;;;;15.35;82.19;100407.08;1654828;84;27684;-81
2022/06/01 04:28:17;;;;;;;4.37;3.83;;;;;;;15.37;82.26;100407.72;1663112;84;25356;-80
2022/06/01 04:30:43;;;;;;;4.12;3.72;;;;;;;15.39;82.12;100404.78;1661289;84;26082;-80
2022/06/01 04:33:09;;;;;;;4.15;3.77;;;;;;;15.41;82.26;100407.56;1654661;84;26467;-80
2022/06/01 04:35:38;;;;;;;4.83;4.25;;;;;;;15.42;82.20;100402.97;1678181;84;25558;-80
2022/06/01 04:38:13;;;;;;;4.20;3.75;;;;;;;15.40;82.50;100396.97;1662119;83;28296;-80
2022/06/01 04:40:46;;;;;;;5.90;4.22;;;;;;;15.39;82.45;100402.91;1661633;84;25321;-80
2022/06/01 04:43:16;;;;;;;7.42;4.55;;;;;;;15.41;82.79;100402.17;1661078;84;25973;-80
2022/06/01 04:45:42;;;;;;;5.03;4.40;;;;;;;15.43;82.75;100405.50;1674027;84;26413;-80
2022/06/01 04:48:09;;;;;;;5.37;4.87;;;;;;;15.44;82.83;100405.78;1667422;83;25872;-80
2022/06/01 04:50:42;;;;;;;6.80;5.08;;;;;;;15.44;82.69;100415.23;1677809;84;28244;-80
2022/06/01 04:53:04;;;;;;;6.37;5.42;;;;;;;15.42;82.90;100415.95;1673271;84;25950;-80
2022/06/01 04:55:32;;;;;;;5.22;4.70;;;;;;;15.39;82.91;100413.71;1677817;84;26223;-80
2022/06/01 04:57:58;;;;;;;5.72;4.97;;;;;;;15.40;83.23;100416.70;1674460;84;26249;-80
2022/06/01 05:00:24;;;;;;;5.75;5.25;;;;;;;15.40;83.37;100417.21;1663274;84;25776;-80
2022/06/01 05:02:51;;;;;;;7.03;5.58;;;;;;;15.40;83.39;100417.21;1673504;84;27653;-81
2022/06/01 05:05:17;;;;;;;6.72;5.47;;;;;;;15.39;83.75;100418.28;1659031;84;25807;-81
2022/06/01 05:07:43;;;;;;;8.13;6.12;;;;;;;15.34;83.51;100401.39;1658406;84;26140;-80
2022/06/01 05:10:09;;;;;;;7.00;5.45;;;;;;;15.35;83.63;100405.73;1667587;84;25981;-80
2022/06/01 05:12:36;;;;;;;7.85;5.95;;;;;;;15.37;83.93;100409.58;1658280;84;25842;-80
2022/06/01 05:15:03;;;;;;;8.35;5.83;;;;;;;15.36;84.14;100407.91;1613023;87;27647;-79
2022/06/01 05:17:33;;;;;;;7.15;5.78;;;;;;;15.36;84.10;100413.31;1667351;84;25736;-80
2022/06/01 05:20:02;;;;;;;6.47;5.87;;;;;;;15.37;84.21;100407.72;1678302;84;26511;-80
2022/06/01 05:22:29;;;;;;;7.35;6.15;;;;;;;15.40;84.49;100419.91;1670363;84;26368;-80
2022/06/01 05:24:55;;;;;;;7.20;6.60;;;;;;;15.40;84.71;100415.86;1670760;84;26557;-79
2022/06/01 05:27:22;;;;;;;7.65;6.85;;;;;;;15.42;84.79;100415.95;1666241;84;27468;-80
2022/06/01 05:29:48;;;;;;;9.78;7.87;;;;;;;15.40;84.82;100415.34;1677637;84;25839;-80
2022/06/01 05:32:14;;;;;;;7.67;6.90;;;;;;;15.39;84.97;100419.11;1660187;84;25746;-80
2022/06/01 05:34:41;;;;;;;10.20;7.40;;;;;;;15.37;84.98;100418.51;1636175;86;25836;-80
2022/06/01 05:37:07;;;;;;;7.45;6.75;;;;;;;15.36;85.11;100417.36;1670811;84;25936;-80
2022/06/01 05:39:33;;;;;;;9.18;8.10;;;;;;;15.33;85.24;100407.83;1670057;84;27648;-80
2022/06/01 05:41:59;;;;;;;10.03;8.13;;;;;;;15.33;85.28;100411.08;1666965;84;25814;-80
2022/06/01 05:44:30;;;;;;;9.58;7.92;;;;;;;15.36;85.56;100410.61;1641711;85;25320;-80
2022/06/01 05:46:58;;;;;;;8.98;8.08;;;;;;;15.41;85.80;100409.43;1662316;83;25905;-80
2022/06/01 05:49:29;;;;;;;9.70;8.70;;;;;;;15.42;85.75;100399.75;1667673;84;25313;-80
2022/06/01 05:51:55;;;;;;;11.75;9.88;;;;;;;15.46;86.05;100402.05;1658187;84;27709;-80
2022/06/01 05:54:25;;;;;;;11.38;9.70;;;;;;;15.49;86.03;100398.89;1665865;84;25989;-80
2022/06/01 05:56:51;;;;;;;11.08;9.93;;;;;;;15.49;86.07;100388.92;1654802;84;26316;-80
2022/06/01 05:59:20;;;;;;;14.25;9.48;;;;;;;15.49;86.13;100378.64;1659590;84;25740;-80
2022/06/01 06:01:48;;;;;;;11.83;9.63;;;;;;;15.46;86.00;100378.59;1630973;86;26905;-80
2022/06/01 06:04:14;;;;;;;10.70;9.38;;;;;;;15.42;86.05;100382.20;1650203;84;27487;-80
2022/06/01 06:06:40;;;;;;;11.55;9.38;;;;;;;15.41;86.39;100386.48;1658539;84;25986;-80
2022/06/01 06:09:09;;;;;;;10.30;9.30;;;;;;;15.38;86.69;100401.77;1669774;84;26010;-81
2022/06/01 06:11:39;;;;;;;9.93;8.98;;;;;;;15.32;86.86;100409.41;1631201;86;26301;-80
2022/06/01 06:14:07;;;;;;;9.90;8.80;;;;;;;15.31;87.16;100407.23;1663771;84;26522;-80
2022/06/01 06:16:42;;;;;;;10.80;9.80;;;;;;;15.33;87.21;100409.17;1665411;83;27465;-80
2022/06/01 06:19:06;;;;;;;9.93;8.93;;;;;;;15.34;87.18;100397.86;1660565;84;26019;-80
2022/06/01 06:21:33;;;;;;;10.93;8.45;;;;;;;15.37;87.50;100388.82;1664001;84;25920;-80
2022/06/01 06:24:03;;;;;;;11.10;9.95;;;;;;;15.41;87.46;100398.63;1671041;84;26564;-79
2022/06/01 06:26:30;;;;;;;13.90;9.83;;;;;;;15.43;87.39;100403.31;1667957;83;25801;-80
2022/06/01 06:28:57;;;;;;;11.63;10.43;;;;;;;15.44;87.45;100397.69;1656476;84;27458;-80
2022/06/01 06:31:23;;;;;;;9.93;8.93;;;;;;;15.48;87.49;100394.55;1669206;84;26195;-80
2022/06/01 06:33:49;;;;;;;10.82;9.73;;;;;;;15.51;87.43;100400.84;1664843;84;25345;-80
2022/06/01 06:36:16;;;;;;;11.08;9.38;;;;;;;15.51;87.27;100395.44;1673769;84;26222;-81
2022/06/01 06:38:42;;;;;;;11.30;9.50;;;;;;;15.54;87.67;100393.66;1669379;83;25989;-80
2022/06/01 06:41:13;;;;;;;10.00;9.00;;;;;;;15.57;87.63;100383.77;1673301;84;27470;-80
2022/06/01 06:43:39;;;;;;;11.03;9.93;;;;;;;15.60;87.68;100391.41;1662439;84;25770;-80
2022/06/01 06:46:16;;;;;;;13.75;10.25;;;;;;;15.60;87.73;100393.59;1670924;84;25884;-80
2022/06/01 06:48:46;;;;;;;10.15;9.15;;;;;;;15.58;87.71;100397.55;1652634;84;26152;-80
2022/06/01 06:51:12;;;;;;;12.10;10.03;;;;;;;15.54;87.72;100392.30;1657751;84;25849;-80
2022/06/01 06:53:39;;;;;;;10.32;9.35;;;;;;;15.55;87.80;100393.94;1668660;84;27470;-80
2022/06/01 06:56:06;;;;;;;14.68;10.45;;;;;;;15.54;87.78;100387.73;1643160;86;25925;-80
2022/06/01 06:58:33;;;;;;;11.53;10.30;;;;;;;15.55;87.88;100389.89;1658551;84;25779;-80
2022/06/01 07:00:59;;;;;;;10.63;9.50;;;;;;;15.54;87.99;100393.14;1673984;84;25912;-79
2022/06/01 07:03:28;;;;;;;10.68;9.58;;;;;;;15.56;88.10;100383.45;1641591;85;25885;-80
2022/06/01 07:06:09;;;;;;;10.95;9.35;;;;;;;15.57;88.16;100379.72;1665825;84;27489;-80
2022/06/01 07:08:39;;;;;;;11.38;9.48;;;;;;;15.58;88.21;100375.44;1645307;86;25873;-81
2022/06/01 07:11:06;;;;;;;11.30;9.48;;;;;;;15.63;88.60;100367.47;1655745;84;25921;-81
2022/06/01 07:13:32;;;;;;;9.60;8.70;;;;;;;15.67;88.27;100371.91;1677383;84;25880;-81
2022/06/01 07:16:12;;;;;;;9.70;8.70;;;;;;;15.73;88.32;100362.91;1659732;84;25961;-80
2022/06/01 07:18:43;;;;;;;16.52;10.68;;;;;;;15.77;88.33;100359.53;1666232;84;27203;-80
2022/06/01 07:21:10;;;;;;;15.03;11.40;;;;;;;15.84;88.57;100358.94;1657453;84;27103;-81
2022/06/01 07:23:37;;;;;;;10.13;9.08;;;;;;;15.88;88.72;100360.64;1669496;84;25847;-81
2022/06/01 07:26:07;;;;;;;9.30;8.03;;;;;;;15.92;88.62;100359.14;1647287;85;26858;-80
2022/06/01 07:28:34;;;;;;;10.15;9.13;;;;;;;15.98;89.01;100358.22;1665825;84;25929;-81
2022/06/01 07:31:00;;;;;;;10.18;8.93;;;;;;;16.03;88.64;100354.33;1666710;84;27484;-81
2022/06/01 07:33:28;;;;;;;8.38;7.67;;;;;;;16.07;88.15;100354.99;1662407;84;25796;-81
2022/06/01 07:35:56;;;;;;;8.70;7.62;;;;;;;16.10;87.98;100358.57;1673011;84;26129;-81
2022/06/01 07:43:58;;;;;;;9.98;8.05;;;;;;;16.21;87.63;100361.86;1666688;84;27556;-81
2022/06/01 07:46:25;;;;;;;10.38;8.25;;;;;;;16.26;86.79;100361.17;1668936;84;26487;-81
2022/06/01 07:48:53;;;;;;;8.65;7.00;;;;;;;16.29;86.85;100355.32;1649702;86;25797;-81
2022/06/01 07:51:22;;;;;;;12.47;6.95;;;;;;;16.35;87.32;100358.45;1661713;84;25815;-81
2022/06/01 07:53:48;;;;;;;6.62;5.97;;;;;;;16.40;87.27;100352.36;1636833;86;25884;-81
2022/06/01 07:56:14;;;;;;;6.60;5.97;;;;;;;16.45;86.74;100351.95;1642639;86;27450;-80
2022/06/01 07:58:40;;;;;;;7.97;5.28;;;;;;;16.48;86.62;100356.08;1647383;86;26177;-80
2022/06/01 08:01:06;;;;;;;8.10;5.10;;;;;;;16.52;86.52;100362.70;1665763;84;25697;-81
2022/06/01 08:03:33;;;;;;;6.67;5.40;;;;;;;16.53;85.92;100364.36;1664317;84;25988;-81
2022/06/01 08:05:59;;;;;;;5.87;5.25;;;;;;;16.55;86.00;100367.66;1661462;84;25591;-80
2022/06/01 08:08:26;;;;;;;6.92;5.58;;;;;;;16.58;86.18;100369.88;1672097;83;28490;-80
2022/06/01 08:10:52;;;;;;;8.25;6.10;;;;;;;16.61;86.00;100372.14;1660606;84;25915;-81
2022/06/01 08:13:19;;;;;;;8.85;6.78;;;;;;;16.64;86.23;100376.55;1659395;84;25830;-81
2022/06/01 08:15:48;;;;;;;5.87;5.30;;;;;;;16.72;86.44;100367.29;1664012;84;25947;-81
2022/06/01 08:18:19;;;;;;;6.22;5.62;;;;;;;16.76;86.03;100371.17;1663100;84;25826;-81
2022/06/01 08:20:46;;;;;;;6.22;5.65;;;;;;;16.78;85.84;100363.65;1669215;84;27475;-80
2022/06/01 08:23:13;;;;;;;5.28;4.78;;;;;;;16.83;86.20;100370.52;1667051;84;25995;-81
2022/06/01 08:25:44;;;;;;;6.03;5.53;;;;;;;16.91;85.94;100372.35;1663348;84;25866;-80
2022/06/01 08:28:11;;;;;;;5.03;4.50;;;;;;;17.05;86.37;100370.78;1673723;83;25852;-81
2022/06/01 08:30:40;;;;;;;4.90;4.30;;;;;;;17.20;86.14;100371.98;1666343;84;25838;-80
2022/06/01 08:33:06;;;;;;;4.35;3.95;;;;;;;17.34;86.06;100372.58;1663521;84;27469;-81
2022/06/01 08:35:36;;;;;;;5.37;3.98;;;;;;;17.49;85.86;100362.89;1665752;84;26533;-81
2022/06/01 08:38:04;;;;;;;5.53;4.10;;;;;;;17.68;85.82;100367.69;1649708;85;25936;-79
2022/06/01 08:40:41;;;;;;;3.50;3.12;;;;;;;17.84;85.62;100377.77;1664158;84;25934;-80
2022/06/01 08:43:12;;;;;;;3.85;3.10;;;;;;;17.99;85.24;100371.30;1664901;84;26196;-80
2022/06/01 08:45:40;;;;;;;5.65;3.90;;;;;;;18.02;83.21;100370.84;1665758;84;28321;-80
2022/06/01 08:48:09;;;;;;;4.10;3.70;;;;;;;18.07;83.56;100357.92;1670793;83;25827;-80
2022/06/01 08:50:38;;;;;;;5.10;3.80;;;;;;;18.15;83.61;100363.78;1629899;86;26003;-80
2022/06/01 08:53:07;;;;;;;3.85;3.10;;;;;;;18.19;83.28;100365.47;1650084;85;26702;-80
2022/06/01 08:55:55;;;;;;;3.72;3.17;;;;;;;18.19;82.39;100366.30;1665567;84;26502;-80
2022/06/01 08:58:27;;;;;;;3.45;3.15;;;;;;;18.13;81.06;100367.27;1672696;83;27471;-80
2022/06/01 09:01:17;;;;;;;3.98;3.08;;;;;;;18.17;81.88;100357.59;1668579;84;25933;-80
2022/06/01 09:04:03;;;;;;;4.78;3.47;;;;;;;18.30;81.87;100365.43;1646692;85;26196;-80
2022/06/01 09:06:44;;;;;;;2.50;2.20;;;;;;;18.41;81.06;100359.66;1670525;84;25906;-80
2022/06/01 09:09:19;;;;;;;3.92;3.50;;;;;;;18.48;79.89;100366.33;1665608;84;25293;-80
2022/06/01 09:11:47;;;;;;;2.80;2.55;;;;;;;18.56;80.06;100372.70;1661806;84;27455;-80
2022/06/01 09:14:26;;;;;;;5.08;2.92;;;;;;;18.58;78.87;100366.50;1669332;84;25792;-80
2022/06/01 09:16:59;;;;;;;3.00;2.80;;;;;;;18.61;79.63;100373.60;1673039;84;25348;-80
2022/06/01 09:22:39;;;;;;;3.62;2.72;;;;;;;18.79;79.45;100374.75;1676799;84;25768;-80
2022/06/01 09:25:19;;;;;;;2.98;2.25;;;;;;;18.89;79.49;100371.36;1658287;84;27641;-80
2022/06/01 09:27:52;;;;;;;2.17;1.98;;;;;;;19.07;79.33;100367.06;1645486;85;26594;-80
2022/06/01 09:30:33;;;;;;;2.37;2.17;;;;;;;19.11;77.79;100370.39;1642118;85;25923;-80
2022/06/01 09:33:31;;;;;;;1.70;1.60;;;;;;;19.16;77.07;100371.81;1663611;84;25771;-80
2022/06/01 09:36:12;;;;;;;4.53;1.80;;;;;;;19.16;77.02;100358.23;1665156;84;25910;-80
2022/06/01 09:38:58;;;;;;;2.20;2.00;;;;;;;19.12;76.93;100357.09;1665492;84;27500;-80
2022/06/01 09:41:36;;;;;;;3.72;2.00;;;;;;;19.04;76.17;100364.83;1677157;84;25971;-80
2022/06/01 09:44:09;;;;;;;2.87;1.72;;;;;;;19.02;76.39;100369.69;1671309;84;26654;-80
2022/06/01 09:46:49;;;;;;;3.17;1.50;;;;;;;19.07;76.63;100371.96;1669558;84;26601;-80
2022/06/01 09:49:36;;;;;;;1.95;1.70;;;;;;;19.23;76.91;100375.19;1663296;84;25326;-80
2022/06/01 09:52:12;;;;;;;1.55;1.45;;;;;;;19.38;77.80;100380.05;1619652;86;27465;-80
2022/06/01 09:54:45;;;;;;;3.08;1.25;;;;;;;19.57;76.72;100371.07;1662045;84;26147;-80
2022/06/01 09:57:22;;;;;;;1.85;1.02;;;;;;;19.71;75.56;100380.52;1663886;84;25316;-80
2022/06/01 10:08:31;;;;;;;2.58;1.30;;;;;;;20.30;74.69;100387.80;1666768;83;26552;-80
2022/06/01 10:11:30;;;;;;;3.40;2.10;;;;;;;20.45;73.51;100395.30;1615004;86;25841;-80
2022/06/01 10:14:25;;;;;;;1.92;1.82;;;;;;;20.51;71.32;100390.19;1670280;84;26557;-79
2022/06/01 10:17:27;;;;;;;1.20;1.10;;;;;;;20.52;70.33;100395.40;1665965;83;26456;-80
2022/06/01 10:20:14;;;;;;;2.92;1.57;;;;;;;20.50;70.05;100392.11;1665129;84;27635;-81
2022/06/01 10:22:46;;;;;;;1.70;1.60;;;;;;;20.55;70.95;100389.42;1666507;84;25343;-79
2022/06/01 10:25:20;;;;;;;1.50;1.40;;;;;;;20.60;71.33;100378.59;1661032;84;26406;-80
2022/06/01 10:28:06;;;;;;;1.55;1.35;;;;;;;20.67;70.96;100384.66;1662004;84;26568;-80
2022/06/01 10:30:37;;;;;;;1.50;1.35;;;;;;;20.75;69.33;100386.91;1640148;86;25949;-80
2022/06/01 10:33:27;;;;;;;3.67;1.65;;;;;;;20.78;68.24;100390.45;1669098;84;28291;-80
2022/06/01 10:36:16;;;;;;;1.92;1.65;;;;;;;20.82;67.58;100389.95;1649997;84;26526;-80
2022/06/01 10:39:02;;;;;;;3.60;1.47;;;;;;;20.80;66.59;100388.03;1653088;83;25991;-80
2022/06/01 10:41:37;;;;;;;2.60;1.65;;;;;;;20.87;66.96;100385.92;1658491;84;25886;-80
2022/06/01 10:44:29;;;;;;;1.87;1.75;;;;;;;20.91;65.94;100383.79;1665890;84;26002;-80
2022/06/01 10:47:15;;;;;;;3.22;1.72;;;;;;;21.01;66.78;100372.97;1666920;84;27542;-80
2022/06/01 10:49:58;;;;;;;3.77;1.57;;;;;;;21.17;66.27;100367.94;1668055;84;26033;-80
2022/06/01 10:52:37;;;;;;;;;;;;;;;21.17;64.51;100368.50;1665540;84;26467;-80
2022/06/01 10:55:26;;;;;;;2.25;1.50;;;;;;;21.23;65.94;100363.37;1671551;84;26657;-80
2022/06/01 10:57:58;;;;;;;1.77;1.37;;;;;;;21.25;65.99;100363.92;1658777;84;25885;-80
2022/06/01 11:00:55;;;;;;;2.83;1.75;;;;;;;21.37;66.09;100359.91;1680190;84;28208;-80
2022/06/01 11:04:01;;;;;;;1.80;1.45;;;;;;;21.51;66.24;100349.37;1672753;84;25836;-80
2022/06/01 11:06:48;;;;;;;2.10;1.80;;;;;;;21.62;65.99;100340.71;1656635;84;26455;-80
2022/06/01 11:09:34;;;;;;;4.58;1.70;;;;;;;21.71;65.08;100344.55;1662623;84;26381;-81
2022/06/01 11:12:12;;;;;;;2.85;1.47;;;;;;;21.72;64.24;100343.48;1665018;84;25842;-80
2022/06/01 11:14:50;;;;;;;1.85;1.45;;;;;;;21.77;63.46;100343.52;1636693;85;28427;-81
2022/06/01 11:17:37;;;;;;;1.40;1.25;;;;;;;21.73;62.81;100342.37;1652574;84;25880;-80
2022/06/01 11:20:27;;;;;;;2.87;1.50;;;;;;;21.81;62.66;100341.32;1677946;84;25988;-80
2022/06/01 11:23:35;;;;;;;2.47;1.40;;;;;;;21.97;63.39;100336.78;1663636;84;25985;-81
2022/06/01 11:26:25;;;;;;;2.17;1.22;;;;;;;22.08;62.99;100329.74;1669861;84;26573;-81
2022/06/01 11:29:13;;;;;;;2.55;1.05;;;;;;;22.13;61.59;100324.84;1673282;84;27736;-81
2022/06/01 11:31:44;;;;;;;2.65;1.47;;;;;;;22.11;61.32;100337.38;1669124;84;25927;-80
2022/06/01 11:34:20;;;;;;;1.27;1.10;;;;;;;22.07;60.28;100329.98;1658817;84;26349;-81
2022/06/01 11:36:58;;;;;;;1.20;1.10;;;;;;;22.12;60.95;100331.38;1617237;86;26581;-81
2022/06/01 11:39:54;;;;;;;6.22;1.50;;;;;;;22.29;61.83;100329.23;1639318;86;26363;-81
2022/06/01 11:42:36;;;;;;;1.60;1.20;;;;;;;22.43;59.11;100324.91;1667703;84;27708;-82
2022/06/01 11:45:08;;;;;;;1.10;1.00;;;;;;;22.44;59.73;100318.34;1662721;84;25939;-81
2022/06/01 11:47:46;;;;;;;2.90;1.47;;;;;;;22.50;59.09;100324.63;1664531;81;25825;-81
2022/06/01 11:50:48;;;;;;;1.37;1.00;;;;;;;22.63;59.25;100326.31;1683137;83;25745;-81
2022/06/01 11:53:36;;;;;;;1.45;1.35;;;;;;;22.66;54.60;100322.22;1687801;83;25372;-80
2022/06/01 11:56:16;;;;;;;2.15;1.20;;;;;;;22.58;54.84;100322.74;1677010;83;28529;-79
2022/06/01 11:58:50;;;;;;;1.30;0.95;;;;;;;22.60;56.35;100320.59;1641860;83;25921;-81
2022/06/01 12:01:45;;;;;;;3.35;1.02;;;;;;;22.60;55.95;100328.78;1603068;87;25931;-81
2022/06/01 12:04:38;;;;;;;1.87;1.25;;;;;;;22.58;55.87;100324.91;1610256;87;26610;-82
2022/06/01 12:07:10;;;;;;;2.37;1.00;;;;;;;22.57;53.88;100327.91;1608668;87;25805;-81
2022/06/01 12:09:49;;;;;;;1.45;1.00;;;;;;;22.60;50.19;100330.14;1648985;85;27726;-80